sensor_id;sensor_type;location;lat;lon;timestamp;P1;durP1;ratioP1;P2;durP2;ratioP2
42000;SDS011;27689;48.390;10.856;2022-10-20T00:01:36;16.00;;;10.05;;
42000;SDS011;27689;48.390;10.856;2022-10-20T00:04:20;13.35;;;10.30;;
42000;SDS011;27689;48.390;10.856;2022-10-20T00:07:04;12.32;;;8.75;;
42000;SDS011;27689;48.390;10.856;2022-10-20T00:09:48;13.93;;;9.20;;
42000;SDS011;27689;48.390;10.856;2022-10-20T00:12:32;11.93;;;9.52;;
42000;SDS011;27689;48.390;10.856;2022-10-20T00:15:15;13.00;;;10.18;;
42000;SDS011;27689;48.390;10.856;2022-10-20T00:18:00;15.13;;;10.30;;
42000;SDS011;27689;48.390;10.856;2022-10-20T00:20:44;14.57;;;10.50;;
42000;SDS011;27689;48.390;10.856;2022-10-20T00:23:28;13.75;;;10.55;;
42000;SDS011;27689;48.390;10.856;2022-10-20T00:26:22;11.95;;;9.52;;
42000;SDS011;27689;48.390;10.856;2022-10-20T00:29:08;12.40;;;10.15;;
42000;SDS011;27689;48.390;10.856;2022-10-20T00:31:52;11.88;;;9.65;;
42000;SDS011;27689;48.390;10.856;2022-10-20T00:34:36;14.55;;;9.98;;
42000;SDS011;27689;48.390;10.856;2022-10-20T00:37:20;15.18;;;10.95;;
42000;SDS011;27689;48.390;10.856;2022-10-20T00:40:04;15.87;;;11.17;;
42000;SDS011;27689;48.390;10.856;2022-10-20T00:42:48;12.52;;;9.32;;
42000;SDS011;27689;48.390;10.856;2022-10-20T00:45:32;13.33;;;9.83;;
42000;SDS011;27689;48.390;10.856;2022-10-20T00:48:18;13.45;;;10.93;;
42000;SDS011;27689;48.390;10.856;2022-10-20T00:51:03;19.17;;;13.20;;
42000;SDS011;27689;48.390;10.856;2022-10-20T00:53:48;17.70;;;12.00;;
42000;SDS011;27689;48.390;10.856;2022-10-20T00:56:36;19.20;;;12.93;;
42000;SDS011;27689;48.390;10.856;2022-10-20T00:59:25;27.10;;;16.48;;
42000;SDS011;27689;48.390;10.856;2022-10-20T01:02:12;24.40;;;17.30;;
42000;SDS011;27689;48.390;10.856;2022-10-20T01:04:57;25.35;;;15.90;;
42000;SDS011;27689;48.390;10.856;2022-10-20T01:07:41;20.55;;;14.70;;
42000;SDS011;27689;48.390;10.856;2022-10-20T01:10:25;24.25;;;15.27;;
42000;SDS011;27689;48.390;10.856;2022-10-20T01:13:24;22.70;;;15.00;;
42000;SDS011;27689;48.390;10.856;2022-10-20T01:16:23;20.17;;;14.23;;
42000;SDS011;27689;48.390;10.856;2022-10-20T01:19:18;28.17;;;18.13;;
42000;SDS011;27689;48.390;10.856;2022-10-20T01:25:24;31.40;;;20.20;;
42000;SDS011;27689;48.390;10.856;2022-10-20T01:32:04;34.65;;;18.95;;
42000;SDS011;27689;48.390;10.856;2022-10-20T01:40:51;37.33;;;23.60;;
42000;SDS011;27689;48.390;10.856;2022-10-20T01:43:41;42.33;;;26.65;;
42000;SDS011;27689;48.390;10.856;2022-10-20T01:46:28;29.70;;;20.92;;
42000;SDS011;27689;48.390;10.856;2022-10-20T01:49:13;36.10;;;23.63;;
42000;SDS011;27689;48.390;10.856;2022-10-20T01:51:57;38.90;;;25.60;;
42000;SDS011;27689;48.390;10.856;2022-10-20T01:54:42;35.58;;;22.60;;
42000;SDS011;27689;48.390;10.856;2022-10-20T01:57:32;41.95;;;25.88;;
42000;SDS011;27689;48.390;10.856;2022-10-20T02:00:20;36.63;;;25.15;;
42000;SDS011;27689;48.390;10.856;2022-10-20T02:03:09;45.17;;;28.95;;
42000;SDS011;27689;48.390;10.856;2022-10-20T02:09:09;43.58;;;28.15;;
42000;SDS011;27689;48.390;10.856;2022-10-20T02:12:04;37.45;;;25.63;;
42000;SDS011;27689;48.390;10.856;2022-10-20T02:14:52;32.70;;;22.50;;
42000;SDS011;27689;48.390;10.856;2022-10-20T02:17:38;34.55;;;23.83;;
42000;SDS011;27689;48.390;10.856;2022-10-20T02:20:25;39.03;;;26.92;;
42000;SDS011;27689;48.390;10.856;2022-10-20T02:23:11;35.65;;;25.10;;
42000;SDS011;27689;48.390;10.856;2022-10-20T02:25:54;35.10;;;25.20;;
42000;SDS011;27689;48.390;10.856;2022-10-20T02:28:42;41.97;;;28.27;;
42000;SDS011;27689;48.390;10.856;2022-10-20T02:31:30;43.22;;;28.90;;
42000;SDS011;27689;48.390;10.856;2022-10-20T02:34:14;41.80;;;29.30;;
42000;SDS011;27689;48.390;10.856;2022-10-20T02:36:58;43.65;;;28.80;;
42000;SDS011;27689;48.390;10.856;2022-10-20T02:39:42;34.90;;;24.77;;
42000;SDS011;27689;48.390;10.856;2022-10-20T02:42:26;39.08;;;27.50;;
42000;SDS011;27689;48.390;10.856;2022-10-20T02:45:10;39.88;;;28.25;;
42000;SDS011;27689;48.390;10.856;2022-10-20T02:47:54;34.38;;;24.90;;
42000;SDS011;27689;48.390;10.856;2022-10-20T02:50:38;41.22;;;29.95;;
42000;SDS011;27689;48.390;10.856;2022-10-20T02:53:22;37.63;;;26.33;;
42000;SDS011;27689;48.390;10.856;2022-10-20T02:56:06;33.63;;;25.05;;
42000;SDS011;27689;48.390;10.856;2022-10-20T02:58:49;36.10;;;26.90;;
42000;SDS011;27689;48.390;10.856;2022-10-20T03:01:33;42.28;;;29.58;;
42000;SDS011;27689;48.390;10.856;2022-10-20T03:04:18;34.35;;;25.20;;
42000;SDS011;27689;48.390;10.856;2022-10-20T03:07:02;37.13;;;27.05;;
42000;SDS011;27689;48.390;10.856;2022-10-20T03:09:45;34.17;;;25.20;;
42000;SDS011;27689;48.390;10.856;2022-10-20T03:12:29;37.53;;;25.90;;
42000;SDS011;27689;48.390;10.856;2022-10-20T03:15:13;35.73;;;25.20;;
42000;SDS011;27689;48.390;10.856;2022-10-20T03:17:57;40.90;;;30.97;;
42000;SDS011;27689;48.390;10.856;2022-10-20T03:20:42;35.25;;;24.70;;
42000;SDS011;27689;48.390;10.856;2022-10-20T03:26:11;46.60;;;30.75;;
42000;SDS011;27689;48.390;10.856;2022-10-20T03:28:55;34.45;;;25.15;;
42000;SDS011;27689;48.390;10.856;2022-10-20T03:31:39;39.90;;;29.77;;
42000;SDS011;27689;48.390;10.856;2022-10-20T03:34:23;44.58;;;31.00;;
42000;SDS011;27689;48.390;10.856;2022-10-20T03:37:07;38.88;;;26.40;;
42000;SDS011;27689;48.390;10.856;2022-10-20T03:39:51;36.83;;;27.85;;
42000;SDS011;27689;48.390;10.856;2022-10-20T03:42:35;36.33;;;26.45;;
42000;SDS011;27689;48.390;10.856;2022-10-20T03:45:18;40.08;;;26.55;;
42000;SDS011;27689;48.390;10.856;2022-10-20T03:48:02;38.35;;;27.13;;
42000;SDS011;27689;48.390;10.856;2022-10-20T03:50:46;48.35;;;32.60;;
42000;SDS011;27689;48.390;10.856;2022-10-20T03:53:30;44.50;;;30.92;;
42000;SDS011;27689;48.390;10.856;2022-10-20T03:56:14;47.35;;;32.65;;
42000;SDS011;27689;48.390;10.856;2022-10-20T03:59:01;42.65;;;28.63;;
42000;SDS011;27689;48.390;10.856;2022-10-20T04:01:45;36.22;;;27.00;;
42000;SDS011;27689;48.390;10.856;2022-10-20T04:04:29;34.63;;;25.73;;
42000;SDS011;27689;48.390;10.856;2022-10-20T04:07:13;36.85;;;26.25;;
42000;SDS011;27689;48.390;10.856;2022-10-20T04:09:57;38.77;;;28.67;;
42000;SDS011;27689;48.390;10.856;2022-10-20T04:12:41;36.75;;;24.55;;
42000;SDS011;27689;48.390;10.856;2022-10-20T04:15:25;42.80;;;28.52;;
42000;SDS011;27689;48.390;10.856;2022-10-20T04:18:09;33.63;;;25.63;;
42000;SDS011;27689;48.390;10.856;2022-10-20T04:20:53;36.72;;;24.98;;
42000;SDS011;27689;48.390;10.856;2022-10-20T04:23:37;42.17;;;28.48;;
42000;SDS011;27689;48.390;10.856;2022-10-20T04:26:21;32.40;;;23.42;;
42000;SDS011;27689;48.390;10.856;2022-10-20T04:29:05;32.95;;;23.50;;
42000;SDS011;27689;48.390;10.856;2022-10-20T04:31:49;36.70;;;26.63;;
42000;SDS011;27689;48.390;10.856;2022-10-20T04:34:33;41.10;;;26.17;;
42000;SDS011;27689;48.390;10.856;2022-10-20T04:40:02;31.77;;;24.50;;
42000;SDS011;27689;48.390;10.856;2022-10-20T04:42:46;38.85;;;27.70;;
42000;SDS011;27689;48.390;10.856;2022-10-20T04:45:30;38.85;;;29.52;;
42000;SDS011;27689;48.390;10.856;2022-10-20T04:48:14;34.10;;;25.77;;
42000;SDS011;27689;48.390;10.856;2022-10-20T04:51:00;31.05;;;22.33;;
42000;SDS011;27689;48.390;10.856;2022-10-20T04:53:48;33.33;;;23.20;;
42000;SDS011;27689;48.390;10.856;2022-10-20T04:56:32;34.28;;;24.70;;
42000;SDS011;27689;48.390;10.856;2022-10-20T04:59:16;31.13;;;22.38;;
42000;SDS011;27689;48.390;10.856;2022-10-20T05:02:00;34.30;;;23.92;;
42000;SDS011;27689;48.390;10.856;2022-10-20T05:04:43;32.97;;;24.77;;
42000;SDS011;27689;48.390;10.856;2022-10-20T05:07:28;31.77;;;21.73;;
42000;SDS011;27689;48.390;10.856;2022-10-20T05:10:13;32.45;;;23.80;;
42000;SDS011;27689;48.390;10.856;2022-10-20T05:12:57;37.70;;;27.38;;
42000;SDS011;27689;48.390;10.856;2022-10-20T05:15:41;37.08;;;25.90;;
42000;SDS011;27689;48.390;10.856;2022-10-20T05:18:25;32.42;;;23.33;;
42000;SDS011;27689;48.390;10.856;2022-10-20T05:21:16;33.75;;;24.33;;
42000;SDS011;27689;48.390;10.856;2022-10-20T05:24:04;36.05;;;26.88;;
42000;SDS011;27689;48.390;10.856;2022-10-20T05:26:48;35.72;;;24.95;;
42000;SDS011;27689;48.390;10.856;2022-10-20T05:29:32;32.92;;;23.48;;
42000;SDS011;27689;48.390;10.856;2022-10-20T05:32:16;35.73;;;22.60;;
42000;SDS011;27689;48.390;10.856;2022-10-20T05:35:00;32.58;;;22.63;;
42000;SDS011;27689;48.390;10.856;2022-10-20T05:37:44;30.45;;;21.77;;
42000;SDS011;27689;48.390;10.856;2022-10-20T05:40:28;35.80;;;24.27;;
42000;SDS011;27689;48.390;10.856;2022-10-20T05:43:12;32.63;;;23.25;;
42000;SDS011;27689;48.390;10.856;2022-10-20T05:45:56;35.67;;;23.60;;
42000;SDS011;27689;48.390;10.856;2022-10-20T05:48:40;32.50;;;22.27;;
42000;SDS011;27689;48.390;10.856;2022-10-20T05:51:25;38.88;;;26.15;;
42000;SDS011;27689;48.390;10.856;2022-10-20T05:54:11;34.55;;;22.98;;
42000;SDS011;27689;48.390;10.856;2022-10-20T05:56:56;29.83;;;21.42;;
42000;SDS011;27689;48.390;10.856;2022-10-20T05:59:40;28.30;;;19.80;;
42000;SDS011;27689;48.390;10.856;2022-10-20T06:02:24;28.40;;;20.10;;
42000;SDS011;27689;48.390;10.856;2022-10-20T06:05:08;38.07;;;24.07;;
42000;SDS011;27689;48.390;10.856;2022-10-20T06:07:52;29.52;;;20.70;;
42000;SDS011;27689;48.390;10.856;2022-10-20T06:10:37;32.42;;;23.13;;
42000;SDS011;27689;48.390;10.856;2022-10-20T06:13:21;31.50;;;21.63;;
42000;SDS011;27689;48.390;10.856;2022-10-20T06:16:08;36.27;;;23.43;;
42000;SDS011;27689;48.390;10.856;2022-10-20T06:18:57;37.42;;;24.80;;
42000;SDS011;27689;48.390;10.856;2022-10-20T06:21:41;30.80;;;20.45;;
42000;SDS011;27689;48.390;10.856;2022-10-20T06:24:25;30.10;;;19.27;;
42000;SDS011;27689;48.390;10.856;2022-10-20T06:27:09;36.78;;;23.02;;
42000;SDS011;27689;48.390;10.856;2022-10-20T06:29:53;30.53;;;19.83;;
42000;SDS011;27689;48.390;10.856;2022-10-20T06:32:37;30.92;;;20.85;;
42000;SDS011;27689;48.390;10.856;2022-10-20T06:35:21;30.83;;;21.60;;
42000;SDS011;27689;48.390;10.856;2022-10-20T06:38:05;32.63;;;19.90;;
42000;SDS011;27689;48.390;10.856;2022-10-20T06:40:49;30.85;;;20.05;;
42000;SDS011;27689;48.390;10.856;2022-10-20T06:43:33;30.50;;;20.73;;
42000;SDS011;27689;48.390;10.856;2022-10-20T06:46:17;40.50;;;24.33;;
42000;SDS011;27689;48.390;10.856;2022-10-20T06:49:02;30.02;;;20.95;;
42000;SDS011;27689;48.390;10.856;2022-10-20T06:51:48;30.15;;;21.05;;
42000;SDS011;27689;48.390;10.856;2022-10-20T06:54:33;24.67;;;19.08;;
42000;SDS011;27689;48.390;10.856;2022-10-20T06:57:17;26.58;;;18.83;;
42000;SDS011;27689;48.390;10.856;2022-10-20T07:00:02;27.50;;;18.25;;
42000;SDS011;27689;48.390;10.856;2022-10-20T07:02:47;31.30;;;20.88;;
42000;SDS011;27689;48.390;10.856;2022-10-20T07:05:32;30.90;;;20.45;;
42000;SDS011;27689;48.390;10.856;2022-10-20T07:08:16;24.23;;;17.52;;
42000;SDS011;27689;48.390;10.856;2022-10-20T07:13:52;30.88;;;20.75;;
42000;SDS011;27689;48.390;10.856;2022-10-20T07:16:36;35.22;;;23.17;;
42000;SDS011;27689;48.390;10.856;2022-10-20T07:19:20;29.35;;;20.80;;
42000;SDS011;27689;48.390;10.856;2022-10-20T07:22:03;33.45;;;21.63;;
42000;SDS011;27689;48.390;10.856;2022-10-20T07:24:47;28.52;;;18.90;;
42000;SDS011;27689;48.390;10.856;2022-10-20T07:27:31;34.17;;;23.58;;
42000;SDS011;27689;48.390;10.856;2022-10-20T07:30:15;27.47;;;18.80;;
42000;SDS011;27689;48.390;10.856;2022-10-20T07:33:00;34.97;;;23.38;;
42000;SDS011;27689;48.390;10.856;2022-10-20T07:35:44;25.90;;;19.60;;
42000;SDS011;27689;48.390;10.856;2022-10-20T07:38:28;26.42;;;19.65;;
42000;SDS011;27689;48.390;10.856;2022-10-20T07:41:12;28.27;;;17.98;;
42000;SDS011;27689;48.390;10.856;2022-10-20T07:46:40;30.30;;;20.73;;
42000;SDS011;27689;48.390;10.856;2022-10-20T07:49:24;39.75;;;23.05;;
42000;SDS011;27689;48.390;10.856;2022-10-20T07:52:08;31.45;;;21.05;;
42000;SDS011;27689;48.390;10.856;2022-10-20T07:54:52;34.13;;;22.20;;
42000;SDS011;27689;48.390;10.856;2022-10-20T07:57:36;26.58;;;18.73;;
42000;SDS011;27689;48.390;10.856;2022-10-20T08:00:20;26.45;;;17.92;;
42000;SDS011;27689;48.390;10.856;2022-10-20T08:03:04;30.50;;;20.53;;
42000;SDS011;27689;48.390;10.856;2022-10-20T08:05:48;28.63;;;19.98;;
42000;SDS011;27689;48.390;10.856;2022-10-20T08:08:32;27.48;;;19.58;;
42000;SDS011;27689;48.390;10.856;2022-10-20T08:11:17;33.13;;;22.17;;
42000;SDS011;27689;48.390;10.856;2022-10-20T08:14:00;31.48;;;20.33;;
42000;SDS011;27689;48.390;10.856;2022-10-20T08:16:45;29.60;;;20.15;;
42000;SDS011;27689;48.390;10.856;2022-10-20T08:19:29;34.90;;;22.85;;
42000;SDS011;27689;48.390;10.856;2022-10-20T08:22:15;26.15;;;18.85;;
42000;SDS011;27689;48.390;10.856;2022-10-20T08:25:01;30.17;;;20.35;;
42000;SDS011;27689;48.390;10.856;2022-10-20T08:27:46;37.83;;;23.25;;
42000;SDS011;27689;48.390;10.856;2022-10-20T08:30:30;29.98;;;20.50;;
42000;SDS011;27689;48.390;10.856;2022-10-20T08:33:14;34.33;;;21.88;;
42000;SDS011;27689;48.390;10.856;2022-10-20T08:36:05;30.50;;;20.30;;
42000;SDS011;27689;48.390;10.856;2022-10-20T08:38:51;32.63;;;21.13;;
42000;SDS011;27689;48.390;10.856;2022-10-20T08:41:46;35.78;;;22.95;;
42000;SDS011;27689;48.390;10.856;2022-10-20T08:44:33;30.98;;;20.77;;
42000;SDS011;27689;48.390;10.856;2022-10-20T08:47:21;33.15;;;21.27;;
42000;SDS011;27689;48.390;10.856;2022-10-20T08:50:09;33.85;;;22.42;;
42000;SDS011;27689;48.390;10.856;2022-10-20T08:52:57;30.60;;;20.67;;
42000;SDS011;27689;48.390;10.856;2022-10-20T08:55:43;32.22;;;19.17;;
42000;SDS011;27689;48.390;10.856;2022-10-20T08:58:28;30.38;;;18.08;;
42000;SDS011;27689;48.390;10.856;2022-10-20T09:01:19;30.65;;;19.58;;
42000;SDS011;27689;48.390;10.856;2022-10-20T09:04:09;32.17;;;21.77;;
42000;SDS011;27689;48.390;10.856;2022-10-20T09:07:02;34.10;;;22.73;;
42000;SDS011;27689;48.390;10.856;2022-10-20T09:09:53;39.58;;;25.33;;
42000;SDS011;27689;48.390;10.856;2022-10-20T09:12:50;36.05;;;23.88;;
42000;SDS011;27689;48.390;10.856;2022-10-20T09:15:34;26.90;;;19.60;;
42000;SDS011;27689;48.390;10.856;2022-10-20T09:18:20;29.52;;;20.13;;
42000;SDS011;27689;48.390;10.856;2022-10-20T09:21:10;29.07;;;18.93;;
42000;SDS011;27689;48.390;10.856;2022-10-20T09:24:00;23.25;;;16.63;;
42000;SDS011;27689;48.390;10.856;2022-10-20T09:26:47;32.08;;;20.55;;
42000;SDS011;27689;48.390;10.856;2022-10-20T09:29:33;24.30;;;17.20;;
42000;SDS011;27689;48.390;10.856;2022-10-20T09:32:20;27.92;;;18.58;;
42000;SDS011;27689;48.390;10.856;2022-10-20T09:38:03;24.45;;;16.85;;
42000;SDS011;27689;48.390;10.856;2022-10-20T09:43:53;28.23;;;19.37;;
42000;SDS011;27689;48.390;10.856;2022-10-20T09:46:44;27.83;;;19.85;;
42000;SDS011;27689;48.390;10.856;2022-10-20T09:49:35;23.17;;;17.85;;
42000;SDS011;27689;48.390;10.856;2022-10-20T09:52:21;34.50;;;24.45;;
42000;SDS011;27689;48.390;10.856;2022-10-20T09:55:27;26.45;;;18.77;;
42000;SDS011;27689;48.390;10.856;2022-10-20T09:58:14;32.40;;;23.95;;
42000;SDS011;27689;48.390;10.856;2022-10-20T10:03:55;27.95;;;18.52;;
42000;SDS011;27689;48.390;10.856;2022-10-20T10:06:44;33.17;;;20.73;;
42000;SDS011;27689;48.390;10.856;2022-10-20T10:09:30;26.48;;;17.60;;
42000;SDS011;27689;48.390;10.856;2022-10-20T10:12:21;24.63;;;17.58;;
42000;SDS011;27689;48.390;10.856;2022-10-20T10:15:10;23.88;;;17.13;;
42000;SDS011;27689;48.390;10.856;2022-10-20T10:18:12;23.80;;;17.23;;
42000;SDS011;27689;48.390;10.856;2022-10-20T10:21:03;28.25;;;18.27;;
42000;SDS011;27689;48.390;10.856;2022-10-20T10:23:51;27.42;;;17.65;;
42000;SDS011;27689;48.390;10.856;2022-10-20T10:26:41;26.20;;;17.13;;
42000;SDS011;27689;48.390;10.856;2022-10-20T10:29:29;26.80;;;16.70;;
42000;SDS011;27689;48.390;10.856;2022-10-20T10:32:23;24.02;;;16.05;;
42000;SDS011;27689;48.390;10.856;2022-10-20T10:38:13;24.27;;;15.93;;
42000;SDS011;27689;48.390;10.856;2022-10-20T10:47:36;27.50;;;19.80;;
42000;SDS011;27689;48.390;10.856;2022-10-20T10:53:41;22.75;;;16.27;;
42000;SDS011;27689;48.390;10.856;2022-10-20T11:11:50;31.15;;;19.15;;
42000;SDS011;27689;48.390;10.856;2022-10-20T11:15:05;30.80;;;19.35;;
42000;SDS011;27689;48.390;10.856;2022-10-20T11:20:55;19.88;;;14.30;;
42000;SDS011;27689;48.390;10.856;2022-10-20T11:24:15;19.00;;;14.68;;
42000;SDS011;27689;48.390;10.856;2022-10-20T11:27:12;17.63;;;13.20;;
42000;SDS011;27689;48.390;10.856;2022-10-20T11:30:03;17.42;;;14.45;;
42000;SDS011;27689;48.390;10.856;2022-10-20T11:33:00;19.23;;;13.20;;
42000;SDS011;27689;48.390;10.856;2022-10-20T11:36:12;23.35;;;16.55;;
42000;SDS011;27689;48.390;10.856;2022-10-20T11:38:59;31.10;;;21.95;;
42000;SDS011;27689;48.390;10.856;2022-10-20T11:41:47;25.52;;;15.95;;
42000;SDS011;27689;48.390;10.856;2022-10-20T11:44:34;26.20;;;19.17;;
42000;SDS011;27689;48.390;10.856;2022-10-20T11:47:27;21.73;;;16.48;;
42000;SDS011;27689;48.390;10.856;2022-10-20T11:50:16;20.95;;;16.15;;
42000;SDS011;27689;48.390;10.856;2022-10-20T11:56:08;20.83;;;16.33;;
42000;SDS011;27689;48.390;10.856;2022-10-20T12:12:09;20.40;;;16.20;;
42000;SDS011;27689;48.390;10.856;2022-10-20T12:15:17;19.75;;;15.90;;
42000;SDS011;27689;48.390;10.856;2022-10-20T12:18:04;22.73;;;16.42;;
42000;SDS011;27689;48.390;10.856;2022-10-20T12:21:00;26.33;;;15.65;;
42000;SDS011;27689;48.390;10.856;2022-10-20T12:26:35;20.40;;;14.05;;
42000;SDS011;27689;48.390;10.856;2022-10-20T12:38:00;20.30;;;14.93;;
42000;SDS011;27689;48.390;10.856;2022-10-20T12:40:54;21.15;;;15.43;;
42000;SDS011;27689;48.390;10.856;2022-10-20T12:43:46;19.92;;;14.23;;
42000;SDS011;27689;48.390;10.856;2022-10-20T12:46:34;20.65;;;15.25;;
42000;SDS011;27689;48.390;10.856;2022-10-20T12:49:26;20.77;;;15.98;;
42000;SDS011;27689;48.390;10.856;2022-10-20T12:52:15;25.17;;;16.48;;
42000;SDS011;27689;48.390;10.856;2022-10-20T12:55:14;19.13;;;13.98;;
42000;SDS011;27689;48.390;10.856;2022-10-20T12:58:12;24.15;;;16.95;;
42000;SDS011;27689;48.390;10.856;2022-10-20T13:01:10;17.52;;;14.30;;
42000;SDS011;27689;48.390;10.856;2022-10-20T13:03:54;15.82;;;13.20;;
42000;SDS011;27689;48.390;10.856;2022-10-20T13:06:39;16.63;;;12.65;;
42000;SDS011;27689;48.390;10.856;2022-10-20T13:09:24;15.38;;;12.90;;
42000;SDS011;27689;48.390;10.856;2022-10-20T13:12:22;18.30;;;13.48;;
42000;SDS011;27689;48.390;10.856;2022-10-20T13:15:09;17.67;;;13.90;;
42000;SDS011;27689;48.390;10.856;2022-10-20T13:17:59;17.42;;;11.90;;
42000;SDS011;27689;48.390;10.856;2022-10-20T13:23:40;21.17;;;15.00;;
42000;SDS011;27689;48.390;10.856;2022-10-20T13:26:35;20.42;;;13.55;;
42000;SDS011;27689;48.390;10.856;2022-10-20T13:29:35;16.73;;;12.53;;
42000;SDS011;27689;48.390;10.856;2022-10-20T13:35:26;16.27;;;12.98;;
42000;SDS011;27689;48.390;10.856;2022-10-20T13:38:18;18.45;;;12.93;;
42000;SDS011;27689;48.390;10.856;2022-10-20T13:41:23;16.23;;;11.82;;
42000;SDS011;27689;48.390;10.856;2022-10-20T13:50:10;15.63;;;11.13;;
42000;SDS011;27689;48.390;10.856;2022-10-20T13:53:04;20.15;;;12.85;;
42000;SDS011;27689;48.390;10.856;2022-10-20T13:56:18;15.98;;;12.43;;
42000;SDS011;27689;48.390;10.856;2022-10-20T14:01:58;14.93;;;11.45;;
42000;SDS011;27689;48.390;10.856;2022-10-20T14:04:44;17.00;;;11.95;;
42000;SDS011;27689;48.390;10.856;2022-10-20T14:07:46;18.48;;;13.00;;
42000;SDS011;27689;48.390;10.856;2022-10-20T14:10:36;20.67;;;15.13;;
42000;SDS011;27689;48.390;10.856;2022-10-20T14:13:32;17.33;;;13.10;;
42000;SDS011;27689;48.390;10.856;2022-10-20T14:16:21;16.80;;;12.32;;
42000;SDS011;27689;48.390;10.856;2022-10-20T14:19:10;18.92;;;12.90;;
42000;SDS011;27689;48.390;10.856;2022-10-20T14:21:56;17.85;;;13.07;;
42000;SDS011;27689;48.390;10.856;2022-10-20T14:24:43;17.02;;;12.40;;
42000;SDS011;27689;48.390;10.856;2022-10-20T14:27:30;20.27;;;14.50;;
42000;SDS011;27689;48.390;10.856;2022-10-20T14:30:15;25.05;;;15.70;;
42000;SDS011;27689;48.390;10.856;2022-10-20T14:33:01;19.42;;;14.80;;
42000;SDS011;27689;48.390;10.856;2022-10-20T14:35:47;20.10;;;15.35;;
42000;SDS011;27689;48.390;10.856;2022-10-20T14:38:37;17.48;;;12.45;;
42000;SDS011;27689;48.390;10.856;2022-10-20T14:41:23;15.27;;;12.20;;
42000;SDS011;27689;48.390;10.856;2022-10-20T14:44:13;23.52;;;15.70;;
42000;SDS011;27689;48.390;10.856;2022-10-20T14:47:03;18.20;;;13.85;;
42000;SDS011;27689;48.390;10.856;2022-10-20T14:52:37;15.98;;;11.98;;
42000;SDS011;27689;48.390;10.856;2022-10-20T14:55:39;20.05;;;14.52;;
42000;SDS011;27689;48.390;10.856;2022-10-20T15:08:20;21.60;;;16.90;;
42000;SDS011;27689;48.390;10.856;2022-10-20T15:11:19;19.90;;;15.43;;
42000;SDS011;27689;48.390;10.856;2022-10-20T15:14:11;21.23;;;15.73;;
42000;SDS011;27689;48.390;10.856;2022-10-20T15:16:58;19.42;;;12.43;;
42000;SDS011;27689;48.390;10.856;2022-10-20T15:19:42;21.40;;;15.20;;
42000;SDS011;27689;48.390;10.856;2022-10-20T15:22:26;18.20;;;12.75;;
42000;SDS011;27689;48.390;10.856;2022-10-20T15:25:10;17.27;;;12.47;;
42000;SDS011;27689;48.390;10.856;2022-10-20T15:27:54;23.75;;;15.88;;
42000;SDS011;27689;48.390;10.856;2022-10-20T15:33:23;21.05;;;13.98;;
42000;SDS011;27689;48.390;10.856;2022-10-20T15:36:17;19.83;;;14.27;;
42000;SDS011;27689;48.390;10.856;2022-10-20T15:39:04;18.33;;;13.65;;
42000;SDS011;27689;48.390;10.856;2022-10-20T15:41:48;20.97;;;13.53;;
42000;SDS011;27689;48.390;10.856;2022-10-20T15:44:32;16.63;;;13.13;;
42000;SDS011;27689;48.390;10.856;2022-10-20T15:47:17;15.98;;;11.70;;
42000;SDS011;27689;48.390;10.856;2022-10-20T15:50:02;24.17;;;14.48;;
42000;SDS011;27689;48.390;10.856;2022-10-20T15:52:46;21.95;;;14.52;;
42000;SDS011;27689;48.390;10.856;2022-10-20T15:55:33;19.48;;;15.60;;
42000;SDS011;27689;48.390;10.856;2022-10-20T15:58:20;23.80;;;15.50;;
42000;SDS011;27689;48.390;10.856;2022-10-20T16:03:49;17.55;;;13.02;;
42000;SDS011;27689;48.390;10.856;2022-10-20T16:06:32;16.85;;;12.98;;
42000;SDS011;27689;48.390;10.856;2022-10-20T16:09:16;14.95;;;10.52;;
42000;SDS011;27689;48.390;10.856;2022-10-20T16:12:01;14.88;;;11.85;;
42000;SDS011;27689;48.390;10.856;2022-10-20T16:14:45;20.20;;;11.43;;
42000;SDS011;27689;48.390;10.856;2022-10-20T16:17:29;15.38;;;11.57;;
42000;SDS011;27689;48.390;10.856;2022-10-20T16:20:13;12.25;;;10.30;;
42000;SDS011;27689;48.390;10.856;2022-10-20T16:25:41;14.25;;;11.18;;
42000;SDS011;27689;48.390;10.856;2022-10-20T16:28:25;16.13;;;11.13;;
42000;SDS011;27689;48.390;10.856;2022-10-20T16:31:10;16.50;;;11.70;;
42000;SDS011;27689;48.390;10.856;2022-10-20T16:34:00;16.80;;;12.88;;
42000;SDS011;27689;48.390;10.856;2022-10-20T16:36:44;17.40;;;12.68;;
42000;SDS011;27689;48.390;10.856;2022-10-20T16:39:27;14.73;;;12.45;;
42000;SDS011;27689;48.390;10.856;2022-10-20T16:42:11;16.17;;;13.60;;
42000;SDS011;27689;48.390;10.856;2022-10-20T16:44:55;20.80;;;14.88;;
42000;SDS011;27689;48.390;10.856;2022-10-20T16:47:40;18.40;;;12.43;;
42000;SDS011;27689;48.390;10.856;2022-10-20T16:50:24;13.43;;;11.48;;
42000;SDS011;27689;48.390;10.856;2022-10-20T16:53:08;16.95;;;12.43;;
42000;SDS011;27689;48.390;10.856;2022-10-20T16:55:53;18.25;;;13.18;;
42000;SDS011;27689;48.390;10.856;2022-10-20T16:58:37;16.92;;;13.10;;
42000;SDS011;27689;48.390;10.856;2022-10-20T17:01:21;18.73;;;13.75;;
42000;SDS011;27689;48.390;10.856;2022-10-20T17:04:05;17.70;;;14.02;;
42000;SDS011;27689;48.390;10.856;2022-10-20T17:06:49;17.00;;;14.18;;
42000;SDS011;27689;48.390;10.856;2022-10-20T17:09:33;16.73;;;13.23;;
42000;SDS011;27689;48.390;10.856;2022-10-20T17:12:17;16.58;;;12.50;;
42000;SDS011;27689;48.390;10.856;2022-10-20T17:15:02;16.88;;;12.07;;
42000;SDS011;27689;48.390;10.856;2022-10-20T17:17:46;15.40;;;11.70;;
42000;SDS011;27689;48.390;10.856;2022-10-20T17:20:30;16.08;;;12.25;;
42000;SDS011;27689;48.390;10.856;2022-10-20T17:23:14;20.92;;;13.77;;
42000;SDS011;27689;48.390;10.856;2022-10-20T17:25:59;17.92;;;14.18;;
42000;SDS011;27689;48.390;10.856;2022-10-20T17:28:45;22.55;;;14.75;;
42000;SDS011;27689;48.390;10.856;2022-10-20T17:31:29;18.38;;;14.57;;
42000;SDS011;27689;48.390;10.856;2022-10-20T17:34:13;20.27;;;14.10;;
42000;SDS011;27689;48.390;10.856;2022-10-20T17:36:57;18.88;;;15.20;;
42000;SDS011;27689;48.390;10.856;2022-10-20T17:39:41;18.48;;;15.27;;
42000;SDS011;27689;48.390;10.856;2022-10-20T17:42:25;19.63;;;16.88;;
42000;SDS011;27689;48.390;10.856;2022-10-20T17:45:09;20.02;;;15.63;;
42000;SDS011;27689;48.390;10.856;2022-10-20T17:47:53;24.67;;;17.05;;
42000;SDS011;27689;48.390;10.856;2022-10-20T17:50:38;26.67;;;17.75;;
42000;SDS011;27689;48.390;10.856;2022-10-20T17:53:21;24.08;;;17.30;;
42000;SDS011;27689;48.390;10.856;2022-10-20T17:56:09;20.30;;;16.08;;
42000;SDS011;27689;48.390;10.856;2022-10-20T17:58:58;22.38;;;17.92;;
42000;SDS011;27689;48.390;10.856;2022-10-20T18:01:45;24.42;;;17.73;;
42000;SDS011;27689;48.390;10.856;2022-10-20T18:04:29;26.08;;;16.52;;
42000;SDS011;27689;48.390;10.856;2022-10-20T18:07:14;22.42;;;17.17;;
42000;SDS011;27689;48.390;10.856;2022-10-20T18:09:58;24.70;;;16.10;;
42000;SDS011;27689;48.390;10.856;2022-10-20T18:12:42;20.73;;;14.60;;